Time;durP1;ratioP1;P1;durP2;ratioP2;P2;SDS_P1;SDS_P2;PMS_P1;PMS_P2;Temp;Humidity;BMP_temperature;BMP_pressure;BME280_temperature;BME280_humidity;BME280_pressure;Samples;Min_cycle;Max_cycle;Signal;HPM_P1;HPM_P2
2021/07/13 00:01:19;;;;;;;12.25;8.53;;;;;;;21.36;76.30;99997.95;1739597;82;21639;-76
2021/07/13 00:03:45;;;;;;;9.98;7.92;;;;;;;21.37;76.12;100002.31;1742900;82;21029;-77
2021/07/13 00:06:12;;;;;;;9.85;8.60;;;;;;;21.37;76.11;99999.62;1741880;82;21052;-77
2021/07/13 00:08:38;;;;;;;10.72;8.58;;;;;;;21.34;76.61;100010.28;1742424;82;21505;-76
2021/07/13 00:11:05;;;;;;;9.63;8.18;;;;;;;21.30;76.65;100013.14;1699409;82;21031;-76
2021/07/13 00:13:31;;;;;;;12.07;9.23;;;;;;;21.28;76.67;100013.89;1711272;82;21044;-76
2021/07/13 00:15:57;;;;;;;8.93;8.03;;;;;;;21.25;77.24;100016.22;1732891;82;20965;-77
2021/07/13 00:18:24;;;;;;;10.53;8.58;;;;;;;21.21;77.29;100021.77;1736179;82;20996;-76
2021/07/13 00:20:50;;;;;;;14.47;7.47;;;;;;;21.18;77.15;100017.13;1728491;82;20993;-76
2021/07/13 00:23:16;;;;;;;11.63;7.25;;;;;;;21.17;77.41;100019.51;1716206;83;21063;-76
2021/07/13 00:25:42;;;;;;;19.70;9.18;;;;;;;21.18;77.45;100018.48;1692901;85;21067;-76
2021/07/13 00:28:09;;;;;;;15.18;8.38;;;;;;;21.16;77.88;100010.33;1693056;85;21011;-76
2021/07/13 00:30:35;;;;;;;10.20;8.33;;;;;;;21.09;77.80;100009.08;1717351;83;20997;-76
2021/07/13 00:33:01;;;;;;;10.38;8.08;;;;;;;21.06;77.76;100009.54;1721217;83;21572;-77
2021/07/13 00:35:27;;;;;;;10.32;8.70;;;;;;;20.99;78.05;100018.73;1714069;83;21521;-76
2021/07/13 00:37:54;;;;;;;14.53;7.72;;;;;;;20.92;78.63;100020.98;1718761;83;21029;-76
2021/07/13 00:40:22;;;;;;;9.78;8.78;;;;;;;20.88;79.01;100022.98;1717328;83;21014;-76
2021/07/13 00:42:52;;;;;;;9.68;8.68;;;;;;;20.85;78.93;100025.59;1715057;83;21014;-76
2021/07/13 00:45:19;;;;;;;14.25;9.88;;;;;;;20.84;78.56;100020.47;1716405;83;21054;-77
2021/07/13 00:47:48;;;;;;;9.53;8.25;;;;;;;20.80;79.02;100025.48;1716442;83;21030;-76
2021/07/13 00:50:18;;;;;;;9.05;7.95;;;;;;;20.78;79.05;100029.44;1716310;83;21030;-76
2021/07/13 00:52:44;;;;;;;12.03;9.30;;;;;;;20.71;79.53;100023.61;1716332;83;21026;-77
2021/07/13 00:55:12;;;;;;;9.68;8.48;;;;;;;20.69;80.21;100027.56;1716278;83;21561;-76
2021/07/13 00:57:39;;;;;;;10.80;8.30;;;;;;;20.67;80.52;100033.68;1716334;83;21030;-77
2021/07/13 01:00:10;;;;;;;8.55;7.75;;;;;;;20.64;80.67;100022.84;1716515;83;21635;-77
2021/07/13 01:02:36;;;;;;;;;;;;;;;20.64;80.48;100028.75;1722233;83;21536;-77
2021/07/13 01:05:08;;;;;;;9.78;8.30;;;;;;;20.56;81.51;100021.79;1723239;83;20455;-77
2021/07/13 01:08:04;;;;;;;9.63;8.30;;;;;;;20.54;80.36;100023.87;1722401;83;20998;-76
2021/07/13 01:11:12;;;;;;;10.23;8.50;;;;;;;20.53;80.34;100026.80;1721784;83;22044;-77
2021/07/13 01:14:05;;;;;;;8.60;7.80;;;;;;;20.49;80.53;100021.84;1723155;83;21042;-78
2021/07/13 01:16:48;;;;;;;13.43;7.80;;;;;;;20.48;80.45;100023.39;1722358;83;21934;-77
2021/07/13 01:19:41;;;;;;;11.43;8.00;;;;;;;20.45;80.43;100017.11;1722290;83;21580;-77
2021/07/13 01:22:12;;;;;;;10.18;7.92;;;;;;;20.45;80.29;100019.80;1723123;83;21038;-77
2021/07/13 01:25:07;;;;;;;8.25;7.35;;;;;;;20.45;80.25;100009.05;1722729;83;21054;-78
2021/07/13 01:27:57;;;;;;;9.68;8.33;;;;;;;20.40;80.34;100004.86;1723305;83;21006;-77
2021/07/13 01:30:27;;;;;;;9.68;8.83;;;;;;;20.37;80.25;100003.95;1723254;83;21046;-77
2021/07/13 01:33:01;;;;;;;16.95;8.75;;;;;;;20.39;79.90;99997.85;1723487;83;21101;-77
2021/07/13 01:35:36;;;;;;;9.63;8.70;;;;;;;20.38;79.88;99994.34;1722337;83;21030;-77
2021/07/13 01:38:06;;;;;;;11.73;8.40;;;;;;;20.34;79.82;99996.34;1708693;83;21049;-77
2021/07/13 01:40:33;;;;;;;8.48;7.72;;;;;;;20.26;80.14;99998.81;1723256;83;21045;-77
2021/07/13 01:43:00;;;;;;;9.18;7.83;;;;;;;20.26;79.94;99991.57;1723166;83;21608;-77
2021/07/13 01:45:26;;;;;;;10.32;8.05;;;;;;;20.25;80.47;99995.31;1722910;83;21121;-77
2021/07/13 01:47:53;;;;;;;9.38;8.43;;;;;;;20.23;80.49;100002.77;1723300;83;21513;-77
2021/07/13 01:50:20;;;;;;;9.58;7.78;;;;;;;20.22;80.62;99998.41;1723016;83;21062;-77
2021/07/13 01:52:47;;;;;;;9.63;8.63;;;;;;;20.18;81.12;100007.97;1723376;83;21014;-76
2021/07/13 01:55:15;;;;;;;15.13;8.25;;;;;;;20.16;80.92;99998.48;1723251;83;21564;-77
2021/07/13 01:57:42;;;;;;;10.88;8.48;;;;;;;20.20;80.79;100001.86;1723217;83;21026;-77
2021/07/13 02:00:11;;;;;;;10.38;8.35;;;;;;;20.21;80.73;100001.34;1723351;83;21454;-77
2021/07/13 02:02:38;;;;;;;12.07;8.60;;;;;;;20.22;80.71;99999.76;1723095;83;21022;-77
2021/07/13 02:05:07;;;;;;;9.18;8.33;;;;;;;20.19;80.86;100000.73;1723273;83;21014;-77
2021/07/13 02:07:41;;;;;;;14.75;8.88;;;;;;;20.21;80.59;100000.81;1722713;83;21022;-78
2021/07/13 02:10:10;;;;;;;15.53;8.10;;;;;;;20.22;80.30;100003.78;1723156;83;21077;-78
2021/07/13 02:12:38;;;;;;;11.30;8.55;;;;;;;20.22;80.23;99993.56;1722892;83;21569;-77
2021/07/13 02:15:06;;;;;;;10.00;8.68;;;;;;;20.22;80.00;99997.59;1723182;83;21022;-77
2021/07/13 02:17:33;;;;;;;10.82;8.33;;;;;;;20.20;79.90;99997.84;1722992;83;21105;-75
2021/07/13 02:20:01;;;;;;;11.12;9.13;;;;;;;20.11;80.35;99997.82;1723553;83;21002;-75
2021/07/13 02:22:28;;;;;;;11.83;8.83;;;;;;;20.08;80.49;99996.08;1723252;83;21556;-77
2021/07/13 02:24:55;;;;;;;9.73;8.73;;;;;;;20.06;80.44;100000.34;1723098;83;21089;-77
2021/07/13 02:27:22;;;;;;;17.15;9.73;;;;;;;20.08;80.20;99993.39;1723007;83;21549;-77
2021/07/13 02:29:56;;;;;;;12.35;7.83;;;;;;;20.06;80.29;99993.63;1723272;83;20994;-77
2021/07/13 02:32:36;;;;;;;14.55;9.33;;;;;;;20.04;80.61;99993.02;1723049;83;21026;-77
2021/07/13 02:35:05;;;;;;;12.37;8.88;;;;;;;19.99;80.43;99988.81;1723387;83;20971;-77
2021/07/13 02:37:34;;;;;;;14.03;9.03;;;;;;;19.95;80.46;100000.52;1723014;83;21006;-76
2021/07/13 02:40:01;;;;;;;11.75;8.93;;;;;;;19.92;80.79;99997.47;1723096;83;21943;-77
2021/07/13 02:42:28;;;;;;;11.75;8.78;;;;;;;19.93;80.57;99999.91;1723121;83;21558;-77
2021/07/13 02:44:56;;;;;;;9.48;8.53;;;;;;;19.92;80.82;99998.80;1723382;83;21057;-77
2021/07/13 02:47:23;;;;;;;14.85;8.73;;;;;;;19.89;81.07;99999.25;1723137;83;20994;-77
2021/07/13 02:49:52;;;;;;;13.62;9.00;;;;;;;19.86;81.36;100005.05;1723295;83;21033;-76
2021/07/13 02:52:25;;;;;;;9.98;7.75;;;;;;;19.86;81.38;100005.05;1723054;83;21516;-76
2021/07/13 02:55:03;;;;;;;11.08;9.78;;;;;;;19.88;81.12;100008.33;1723155;83;21120;-76
2021/07/13 02:57:31;;;;;;;17.05;9.13;;;;;;;19.92;80.99;100013.05;1722685;83;21533;-76
2021/07/13 02:59:59;;;;;;;16.35;8.50;;;;;;;19.91;81.16;100018.12;1723158;83;21049;-76
2021/07/13 03:02:26;;;;;;;11.40;8.70;;;;;;;19.84;81.33;100012.79;1722920;83;21054;-76
2021/07/13 03:04:54;;;;;;;9.83;7.92;;;;;;;19.75;83.04;100014.10;1723052;83;21084;-76
2021/07/13 03:07:21;;;;;;;10.35;7.03;;;;;;;19.77;82.78;100013.37;1722481;83;21041;-76
2021/07/13 03:09:49;;;;;;;10.15;7.47;;;;;;;19.79;82.53;100013.98;1723140;83;21018;-76
2021/07/13 03:12:16;;;;;;;8.43;7.55;;;;;;;19.82;82.26;100008.67;1723257;83;21050;-76
2021/07/13 03:14:44;;;;;;;12.93;7.22;;;;;;;19.87;82.08;99999.98;1723192;83;21030;-76
2021/07/13 03:17:16;;;;;;;11.35;6.90;;;;;;;19.87;81.87;100002.66;1723197;83;21013;-76
2021/07/13 03:19:45;;;;;;;10.55;8.23;;;;;;;19.86;81.47;99999.16;1722975;83;21010;-76
2021/07/13 03:22:22;;;;;;;9.83;7.97;;;;;;;19.82;81.34;99997.44;1723068;83;21017;-76
2021/07/13 03:24:49;;;;;;;11.10;8.10;;;;;;;19.84;81.33;99996.67;1723044;83;21565;-76
2021/07/13 03:27:18;;;;;;;9.75;8.28;;;;;;;19.89;81.48;99995.22;1723066;83;21006;-76
2021/07/13 03:29:46;;;;;;;9.65;8.65;;;;;;;19.89;81.59;99997.91;1722944;83;21041;-76
2021/07/13 03:32:15;;;;;;;11.78;9.25;;;;;;;19.92;81.39;99999.63;1723060;83;21041;-76
2021/07/13 03:34:43;;;;;;;14.77;9.03;;;;;;;19.96;81.37;99995.97;1723080;83;21447;-77
2021/07/13 03:37:09;;;;;;;14.20;8.78;;;;;;;19.96;81.33;100000.00;1723264;83;21006;-77
2021/07/13 03:39:36;;;;;;;10.45;8.65;;;;;;;20.00;81.24;100001.22;1723071;83;21018;-77
2021/07/13 03:42:03;;;;;;;15.50;8.05;;;;;;;20.02;81.59;100004.48;1723007;83;21061;-76
2021/07/13 03:44:30;;;;;;;18.05;9.18;;;;;;;20.07;81.40;100003.31;1722765;83;21081;-77
2021/07/13 03:46:57;;;;;;;11.55;9.48;;;;;;;20.11;81.38;100011.25;1700407;83;21077;-77
2021/07/13 03:49:25;;;;;;;12.95;9.80;;;;;;;20.18;81.25;100012.53;1722890;83;21010;-76
2021/07/13 03:51:52;;;;;;;12.40;9.58;;;;;;;20.25;81.51;100002.53;1715679;83;21539;-77
2021/07/13 03:54:20;;;;;;;10.60;8.90;;;;;;;20.33;81.19;99999.56;1710470;81;20952;-76
2021/07/13 03:56:49;;;;;;;14.33;9.53;;;;;;;20.39;81.25;100005.91;1721481;83;21063;-76
2021/07/13 03:59:17;;;;;;;22.45;10.18;;;;;;;20.41;80.71;100010.55;1721540;83;20996;-77
2021/07/13 04:01:44;;;;;;;15.90;10.28;;;;;;;20.47;80.60;100009.66;1721235;83;21903;-77
2021/07/13 04:04:10;;;;;;;12.55;9.33;;;;;;;20.52;80.83;100009.82;1719905;83;21024;-77
2021/07/13 04:06:37;;;;;;;10.85;9.20;;;;;;;20.53;80.51;100006.11;1719486;83;21420;-77
2021/07/13 04:09:06;;;;;;;13.10;9.30;;;;;;;20.58;80.34;100011.64;1719739;83;20996;-77
2021/07/13 04:11:33;;;;;;;11.80;9.30;;;;;;;20.63;80.47;100011.80;1719628;83;21039;-76
2021/07/13 04:13:59;;;;;;;10.32;9.18;;;;;;;20.71;80.41;100014.70;1719781;83;21039;-76
2021/07/13 04:16:25;;;;;;;13.62;9.25;;;;;;;20.77;80.20;100017.02;1719370;83;20996;-76
2021/07/13 04:18:52;;;;;;;13.25;9.85;;;;;;;20.82;80.00;100021.20;1719587;83;20983;-76
2021/07/13 04:21:18;;;;;;;14.47;9.23;;;;;;;20.84;80.03;100013.73;1719661;83;21020;-77
2021/07/13 04:23:44;;;;;;;12.60;9.85;;;;;;;20.74;80.33;100007.52;1719463;83;21014;-76
2021/07/13 04:26:11;;;;;;;12.65;10.10;;;;;;;20.79;80.16;100016.27;1719579;83;21605;-76
2021/07/13 04:28:37;;;;;;;13.00;11.80;;;;;;;20.86;80.26;100021.03;1719193;83;21180;-76
2021/07/13 04:31:04;;;;;;;11.60;9.30;;;;;;;20.93;80.27;100014.55;1719646;83;20968;-76
2021/07/13 04:33:30;;;;;;;12.93;10.72;;;;;;;21.00;80.09;100016.33;1719574;83;21020;-76
2021/07/13 04:36:00;;;;;;;17.85;10.45;;;;;;;21.09;79.99;100023.88;1719606;83;20992;-76
2021/07/13 04:38:27;;;;;;;11.45;9.58;;;;;;;21.22;79.76;100018.02;1719491;83;21064;-77
2021/07/13 04:40:54;;;;;;;11.63;10.38;;;;;;;21.32;79.47;100023.66;1719621;83;21027;-77
2021/07/13 04:43:20;;;;;;;15.93;10.88;;;;;;;21.37;78.96;100015.77;1719718;83;21507;-79
2021/07/13 04:45:46;;;;;;;12.43;11.20;;;;;;;21.42;78.75;100017.25;1719532;83;21039;-78
2021/07/13 04:48:13;;;;;;;21.52;10.55;;;;;;;21.46;78.44;100014.39;1719744;83;20996;-78
2021/07/13 04:50:39;;;;;;;12.25;10.18;;;;;;;21.54;78.19;100016.76;1719482;83;20956;-79
2021/07/13 04:53:05;;;;;;;16.80;11.35;;;;;;;21.62;77.99;100020.48;1719626;83;20984;-77
2021/07/13 04:55:32;;;;;;;14.25;10.68;;;;;;;21.69;77.67;100020.90;1719464;83;21514;-80
2021/07/13 04:57:58;;;;;;;17.35;10.63;;;;;;;21.72;77.36;100023.98;1719732;83;21431;-76
2021/07/13 05:00:24;;;;;;;12.88;10.55;;;;;;;21.78;77.25;100024.89;1719640;83;20987;-82
2021/07/13 05:02:51;;;;;;;14.15;10.90;;;;;;;21.85;77.17;100035.06;1720115;83;21019;-92
2021/07/13 05:05:17;;;;;;;13.32;11.03;;;;;;;21.92;77.10;100033.59;1723741;83;20991;-88
2021/07/13 05:07:45;;;;;;;14.87;11.55;;;;;;;22.02;77.07;100034.67;1723297;83;21427;-88
2021/07/13 05:10:17;;;;;;;11.25;10.05;;;;;;;22.22;76.85;100033.56;1723507;83;21052;-87
2021/07/13 05:12:44;;;;;;;13.10;10.20;;;;;;;22.22;76.85;100033.56;1723597;83;20972;-89
2021/07/13 05:15:15;;;;;;;13.35;10.30;;;;;;;22.32;76.15;100039.70;1723849;83;20976;-91
2021/07/13 05:17:41;;;;;;;18.67;11.45;;;;;;;22.32;75.34;100030.27;1723314;83;21003;-89
2021/07/13 05:20:12;;;;;;;12.78;10.63;;;;;;;22.33;75.10;100034.59;1723797;83;21483;-89
2021/07/13 05:22:38;;;;;;;17.67;11.25;;;;;;;22.41;74.96;100035.59;1723513;83;20964;-93
2021/07/13 05:25:08;;;;;;;19.85;11.90;;;;;;;22.52;74.77;100042.33;1723896;83;21159;-92
2021/07/13 05:27:40;;;;;;;14.15;11.43;;;;;;;22.63;74.31;100043.38;1723922;83;21569;-91
2021/07/13 05:30:09;;;;;;;12.93;11.63;;;;;;;22.73;73.75;100048.20;1723589;83;20952;-90
2021/07/13 05:32:36;;;;;;;20.90;11.77;;;;;;;22.78;73.34;100045.59;1723719;83;20968;-90
2021/07/13 05:35:05;;;;;;;16.12;11.63;;;;;;;22.86;73.38;100049.27;1723771;83;21261;-79
2021/07/13 05:37:31;;;;;;;12.13;10.45;;;;;;;22.90;73.22;100049.11;1723285;83;21058;-76
2021/07/13 05:39:58;;;;;;;13.07;10.50;;;;;;;22.99;73.05;100056.34;1723616;83;20980;-78
2021/07/13 05:42:25;;;;;;;18.50;11.15;;;;;;;23.10;72.76;100053.30;1722825;83;21031;-78
2021/07/13 05:44:52;;;;;;;13.70;10.80;;;;;;;23.27;72.37;100059.58;1723225;83;21015;-80
2021/07/13 05:47:18;;;;;;;14.83;11.28;;;;;;;23.38;72.17;100060.60;1723410;83;20972;-80
2021/07/13 05:49:45;;;;;;;16.35;12.63;;;;;;;23.48;71.60;100046.45;1723310;83;20992;-79
2021/07/13 05:52:11;;;;;;;12.43;11.22;;;;;;;23.54;71.26;100047.69;1723506;83;21040;-80
2021/07/13 05:54:37;;;;;;;19.77;10.70;;;;;;;23.61;70.95;100044.82;1751297;81;21820;-79
2021/07/13 05:57:04;;;;;;;19.20;11.75;;;;;;;23.74;70.81;100044.56;1770176;81;21026;-79
2021/07/13 05:59:30;;;;;;;26.70;12.33;;;;;;;23.86;70.06;100043.14;1770523;81;21028;-76
2021/07/13 06:01:56;;;;;;;16.48;11.57;;;;;;;23.96;69.36;100047.88;1770890;81;20984;-79
2021/07/13 06:04:23;;;;;;;15.48;10.58;;;;;;;24.04;69.45;100050.19;1749765;81;21056;-79
2021/07/13 06:06:49;;;;;;;18.70;11.78;;;;;;;24.13;68.11;100050.05;1737733;82;21832;-79
2021/07/13 06:09:15;;;;;;;13.98;12.00;;;;;;;24.22;68.08;100051.27;1738006;82;20977;-83
2021/07/13 06:11:42;;;;;;;14.25;12.78;;;;;;;24.30;67.94;100041.40;1737712;81;20972;-80
2021/07/13 06:14:08;;;;;;;16.35;11.88;;;;;;;24.37;67.42;100045.30;1737796;81;21038;-80
2021/07/13 06:16:34;;;;;;;17.65;12.58;;;;;;;24.48;67.31;100059.27;1736051;82;21039;-80
2021/07/13 06:19:00;;;;;;;15.53;11.73;;;;;;;24.58;66.65;100055.09;1737008;81;21000;-80
2021/07/13 06:21:26;;;;;;;17.12;12.28;;;;;;;24.69;66.27;100057.69;1736916;81;21073;-81
2021/07/13 06:23:52;;;;;;;16.90;12.23;;;;;;;24.80;65.64;100064.07;1737851;81;21013;-83
2021/07/13 06:26:19;;;;;;;21.90;12.85;;;;;;;24.90;65.29;100058.77;1737625;81;20976;-80
2021/07/13 06:28:45;;;;;;;15.40;11.63;;;;;;;24.94;65.33;100052.31;1737098;81;21070;-81
2021/07/13 06:31:11;;;;;;;14.70;11.50;;;;;;;25.05;65.18;100057.33;1736873;81;21019;-79
2021/07/13 06:33:39;;;;;;;15.20;11.12;;;;;;;25.16;65.14;100059.12;1736790;81;20992;-80
2021/07/13 06:36:05;;;;;;;14.80;10.95;;;;;;;25.24;65.13;100060.03;1736857;82;21332;-80
2021/07/13 06:38:31;;;;;;;16.70;10.82;;;;;;;25.32;65.25;100060.09;1737457;82;20984;-77
2021/07/13 06:40:58;;;;;;;17.95;11.73;;;;;;;25.43;64.57;100065.41;1737154;82;21067;-79
2021/07/13 06:43:24;;;;;;;14.38;11.08;;;;;;;25.59;64.52;100058.78;1737707;82;21000;-80
2021/07/13 06:45:50;;;;;;;16.00;11.50;;;;;;;25.63;62.73;100063.41;1737411;82;21034;-79
2021/07/13 06:48:16;;;;;;;16.27;11.88;;;;;;;25.70;63.32;100061.06;1737703;81;21448;-79
2021/07/13 06:50:42;;;;;;;17.80;11.60;;;;;;;25.76;63.33;100057.31;1737818;82;20995;-80
2021/07/13 06:53:08;;;;;;;21.17;11.40;;;;;;;25.88;63.66;100055.28;1737233;82;21011;-79
2021/07/13 06:55:35;;;;;;;23.27;11.30;;;;;;;25.97;63.64;100056.44;1737314;81;20964;-80
2021/07/13 06:58:02;;;;;;;16.35;11.03;;;;;;;26.10;63.35;100056.02;1737672;81;21066;-79
2021/07/13 07:00:29;;;;;;;19.42;11.35;;;;;;;26.23;62.31;100053.94;1738249;82;21471;-79
2021/07/13 07:02:55;;;;;;;16.02;11.50;;;;;;;26.29;61.32;100050.17;1737883;82;20984;-78
2021/07/13 07:05:22;;;;;;;17.07;11.93;;;;;;;26.36;61.87;100041.83;1761710;81;21036;-79
2021/07/13 07:07:50;;;;;;;26.07;12.68;;;;;;;26.44;62.00;100051.66;1762508;81;20980;-78
2021/07/13 07:10:18;;;;;;;19.20;11.95;;;;;;;26.55;61.88;100052.55;1763277;81;21063;-79
2021/07/13 07:12:45;;;;;;;18.62;11.30;;;;;;;26.67;61.40;100053.69;1763090;81;20981;-78
2021/07/13 07:15:12;;;;;;;15.58;11.95;;;;;;;26.77;61.26;100058.64;1763380;81;21031;-79
2021/07/13 07:17:51;;;;;;;19.77;11.45;;;;;;;26.90;60.95;100056.52;1763004;81;20993;-78
2021/07/13 07:20:26;;;;;;;13.72;10.90;;;;;;;26.99;60.18;100057.13;1763381;81;20985;-78
2021/07/13 07:22:57;;;;;;;13.83;10.60;;;;;;;27.08;60.26;100056.62;1763042;81;21677;-78
2021/07/13 07:25:24;;;;;;;17.57;10.15;;;;;;;27.22;59.96;100056.43;1763276;81;21009;-78
2021/07/13 07:27:55;;;;;;;15.28;10.08;;;;;;;27.32;59.49;100056.98;1762658;81;21055;-78
2021/07/13 07:30:19;;;;;;;20.10;10.93;;;;;;;27.42;58.96;100056.48;1762668;81;20985;-78
2021/07/13 07:32:45;;;;;;;18.02;10.43;;;;;;;27.53;58.85;100052.41;1762952;81;21425;-78
2021/07/13 07:35:13;;;;;;;11.95;10.68;;;;;;;27.70;58.91;100061.69;1763249;81;21028;-77
2021/07/13 07:37:42;;;;;;;13.20;10.80;;;;;;;27.81;58.18;100043.78;1763055;81;20976;-78
2021/07/13 07:40:17;;;;;;;14.05;11.10;;;;;;;27.93;57.81;100045.42;1763262;81;20996;-77
2021/07/13 07:42:41;;;;;;;12.30;10.95;;;;;;;28.03;57.35;100045.43;1762266;81;21315;-77
2021/07/13 07:45:08;;;;;;;11.35;10.23;;;;;;;28.16;57.45;100039.97;1763302;81;21488;-77
2021/07/13 07:47:35;;;;;;;13.00;10.80;;;;;;;28.30;57.97;100040.48;1763297;81;20988;-76
2021/07/13 07:50:03;;;;;;;17.40;10.90;;;;;;;28.45;57.83;100034.78;1762962;81;20991;-77
2021/07/13 07:52:29;;;;;;;13.93;9.60;;;;;;;28.53;56.83;100037.75;1763571;81;21540;-77
2021/07/13 07:54:59;;;;;;;15.18;10.60;;;;;;;28.66;56.60;100035.56;1762931;81;21052;-78
2021/07/13 07:57:25;;;;;;;14.10;10.10;;;;;;;28.75;55.75;100033.34;1763420;81;21079;-77
2021/07/13 07:59:52;;;;;;;14.60;10.00;;;;;;;28.84;55.50;100030.05;1759383;81;20996;-76
2021/07/13 08:02:18;;;;;;;14.33;9.85;;;;;;;28.90;54.86;100035.19;1704120;81;21024;-78
2021/07/13 08:04:44;;;;;;;10.88;9.55;;;;;;;28.98;54.95;100024.27;1719549;81;21001;-78
2021/07/13 08:07:10;;;;;;;18.42;9.93;;;;;;;29.10;54.52;100028.05;1719126;83;20992;-77
2021/07/13 08:09:37;;;;;;;13.70;9.23;;;;;;;29.12;53.97;100025.31;1711343;83;20992;-75
2021/07/13 08:12:03;;;;;;;13.22;9.75;;;;;;;29.19;53.81;100032.62;1698418;84;21000;-78
2021/07/13 08:14:30;;;;;;;12.80;9.30;;;;;;;29.27;53.78;100027.69;1698544;84;20984;-78
2021/07/13 08:16:56;;;;;;;10.35;8.20;;;;;;;29.34;53.22;100032.27;1698210;84;21964;-78
2021/07/13 08:19:23;;;;;;;17.67;8.58;;;;;;;29.43;52.95;100029.20;1698315;84;21040;-78
2021/07/13 08:21:50;;;;;;;13.53;8.73;;;;;;;29.54;52.35;100032.69;1698252;84;21040;-78
2021/07/13 08:24:17;;;;;;;13.93;8.23;;;;;;;29.59;51.89;100034.83;1719297;81;20977;-80
2021/07/13 08:26:44;;;;;;;9.13;8.10;;;;;;;29.58;51.58;100030.48;1698056;84;21055;-78
2021/07/13 08:29:10;;;;;;;11.08;6.97;;;;;;;29.63;51.50;100037.27;1712858;81;21456;-78
2021/07/13 08:31:36;;;;;;;16.37;7.85;;;;;;;29.74;50.91;100035.84;1700509;83;20996;-76
2021/07/13 08:34:03;;;;;;;14.50;8.73;;;;;;;29.83;51.08;100035.50;1717259;83;20973;-78
2021/07/13 08:36:30;;;;;;;11.18;7.65;;;;;;;29.95;50.84;100033.20;1731187;81;21029;-79
2021/07/13 08:38:56;;;;;;;18.55;8.03;;;;;;;30.09;50.71;100038.27;1713058;83;21926;-79
2021/07/13 08:41:22;;;;;;;22.07;8.28;;;;;;;30.24;49.88;100033.80;1727428;83;21515;-79
2021/07/13 08:43:51;;;;;;;14.93;7.12;;;;;;;30.25;49.88;100036.25;1727049;83;21001;-78
2021/07/13 08:46:18;;;;;;;22.77;9.83;;;;;;;30.38;49.79;100029.84;1698069;84;21496;-79
2021/07/13 08:48:53;;;;;;;12.58;8.15;;;;;;;30.55;50.44;100037.83;1698114;84;21008;-78
2021/07/13 08:51:17;;;;;;;10.93;7.30;;;;;;;30.74;50.26;100035.73;1697018;84;21060;-78
2021/07/13 08:53:43;;;;;;;9.25;7.15;;;;;;;30.85;48.96;100037.27;1676638;84;21479;-78
2021/07/13 08:56:10;;;;;;;11.15;6.45;;;;;;;30.93;48.71;100035.26;1698488;84;21032;-79
2021/07/13 08:58:36;;;;;;;10.78;7.30;;;;;;;30.99;47.79;100035.45;1698196;84;21491;-79
2021/07/13 09:01:03;;;;;;;17.32;7.45;;;;;;;31.02;47.64;100037.59;1698256;84;21035;-79
2021/07/13 09:03:32;;;;;;;14.53;6.35;;;;;;;31.13;46.96;100031.97;1698425;84;21005;-79
2021/07/13 09:06:04;;;;;;;16.52;7.00;;;;;;;31.17;46.44;100030.30;1689799;84;22036;-79
2021/07/13 09:08:32;;;;;;;8.50;5.58;;;;;;;31.26;46.39;100029.89;1706237;84;21561;-79
2021/07/13 09:11:21;;;;;;;9.28;6.90;;;;;;;31.32;44.75;100034.17;1696150;84;21057;-79
2021/07/13 09:14:00;;;;;;;13.58;6.25;;;;;;;31.44;45.40;100026.36;1678565;85;21033;-79
2021/07/13 09:16:33;;;;;;;11.30;5.75;;;;;;;31.55;45.07;100027.59;1685721;83;20982;-79
2021/07/13 09:18:59;;;;;;;8.15;5.97;;;;;;;31.67;44.19;100027.94;1686735;83;21124;-79
2021/07/13 09:21:33;;;;;;;7.30;6.37;;;;;;;31.75;44.31;100030.00;1678757;85;21088;-79
2021/07/13 09:24:15;;;;;;;12.07;6.30;;;;;;;31.85;43.77;100027.11;1678606;85;21044;-80
2021/07/13 09:26:52;;;;;;;9.98;6.70;;;;;;;31.90;42.82;100031.66;1697718;84;21093;-76
2021/07/13 09:29:40;;;;;;;9.65;5.70;;;;;;;31.93;42.68;100034.39;1694877;83;20986;-78
2021/07/13 09:32:31;;;;;;;9.03;5.85;;;;;;;31.98;41.83;100034.31;1696241;83;21062;-79
2021/07/13 09:35:02;;;;;;;8.28;6.67;;;;;;;32.03;41.93;100032.30;1706791;83;20986;-79
2021/07/13 09:37:32;;;;;;;12.00;6.10;;;;;;;32.14;42.65;100026.09;1680430;83;21477;-79
2021/07/13 09:40:12;;;;;;;9.50;6.60;;;;;;;32.26;43.19;100027.78;1681000;83;21048;-78
2021/07/13 09:42:51;;;;;;;10.65;6.08;;;;;;;32.34;41.83;100028.98;1702755;83;20978;-79
2021/07/13 09:45:33;;;;;;;18.77;6.67;;;;;;;32.42;42.47;100028.86;1706636;84;20998;-79
2021/07/13 09:48:11;;;;;;;14.10;6.45;;;;;;;32.57;42.66;100029.42;1700754;84;22286;-79
2021/07/13 09:50:44;;;;;;;7.97;6.00;;;;;;;32.72;42.25;100026.13;1688286;84;21033;-80
2021/07/13 09:53:17;;;;;;;12.05;6.33;;;;;;;32.86;42.55;100025.55;1668321;84;21062;-79
2021/07/13 09:55:49;;;;;;;13.15;5.65;;;;;;;32.94;41.06;100026.74;1691520;84;21434;-79
2021/07/13 09:58:21;;;;;;;13.93;6.45;;;;;;;33.04;41.25;100027.94;1691422;83;21691;-79
2021/07/13 10:01:01;;;;;;;9.80;6.20;;;;;;;33.08;40.11;100023.45;1690625;83;21065;-80
2021/07/13 10:03:27;;;;;;;10.23;6.00;;;;;;;33.11;39.23;100024.20;1699814;83;21516;-79
2021/07/13 10:05:54;;;;;;;9.40;5.10;;;;;;;33.21;39.11;100017.13;1703745;82;21072;-76
2021/07/13 10:08:23;;;;;;;8.58;6.22;;;;;;;33.39;39.50;100026.88;1707816;83;21008;-79
2021/07/13 10:10:50;;;;;;;6.20;5.35;;;;;;;33.44;39.65;100022.66;1701882;83;21075;-78
2021/07/13 10:13:19;;;;;;;8.33;5.53;;;;;;;33.48;38.95;100026.39;1693569;85;21476;-80
2021/07/13 10:15:48;;;;;;;10.30;6.15;;;;;;;33.46;38.33;100021.77;1693527;85;20957;-77
2021/07/13 10:18:13;;;;;;;10.87;5.67;;;;;;;33.50;38.10;100028.84;1712438;83;20981;-79
2021/07/13 10:20:42;;;;;;;7.33;5.83;;;;;;;33.56;38.89;100024.31;1702643;83;21012;-80
2021/07/13 10:23:12;;;;;;;12.37;5.65;;;;;;;33.59;39.63;100018.20;1708092;83;20993;-80
2021/07/13 10:25:44;;;;;;;18.25;7.53;;;;;;;33.78;38.17;100015.81;1722977;83;21110;-80
2021/07/13 10:28:13;;;;;;;8.48;5.37;;;;;;;33.88;37.56;100017.75;1702825;83;20981;-81
2021/07/13 10:30:43;;;;;;;8.90;5.28;;;;;;;34.00;37.28;100017.17;1723073;83;20976;-80
2021/07/13 10:33:37;;;;;;;14.65;5.90;;;;;;;34.02;37.04;100023.16;1722793;82;21531;-81
2021/07/13 10:36:32;;;;;;;10.18;6.10;;;;;;;33.96;36.28;100012.64;1722548;83;21358;-80
2021/07/13 10:39:30;;;;;;;6.12;5.33;;;;;;;33.94;36.46;100018.43;1722931;83;20980;-82
2021/07/13 10:42:00;;;;;;;14.65;5.80;;;;;;;34.10;37.48;100014.20;1722988;83;21045;-83
2021/07/13 10:44:44;;;;;;;;;;;;;;;34.05;37.52;100012.16;1725695;83;20980;-81
2021/07/13 10:47:26;;;;;;;6.17;5.55;;;;;;;33.84;38.00;100012.65;1723200;83;20103;-79
2021/07/13 10:50:20;;;;;;;6.10;5.55;;;;;;;33.97;37.54;100008.76;1722977;83;21483;-80
2021/07/13 10:52:58;;;;;;;7.42;5.17;;;;;;;34.11;37.69;99996.59;1716482;83;20986;-77
2021/07/13 10:55:37;;;;;;;9.38;6.22;;;;;;;34.33;36.78;100000.42;1694294;85;21073;-78
2021/07/13 10:58:18;;;;;;;11.12;6.40;;;;;;;34.47;36.69;100007.16;1694196;84;21038;-79
2021/07/13 11:00:58;;;;;;;8.33;5.67;;;;;;;34.40;35.62;99999.95;1694571;84;21016;-78
2021/07/13 11:03:33;;;;;;;8.93;6.03;;;;;;;34.42;36.36;99995.77;1694381;85;21095;-78
2021/07/13 11:06:16;;;;;;;5.85;5.12;;;;;;;34.56;35.79;99988.82;1682674;83;21034;-79
2021/07/13 11:08:48;;;;;;;16.10;5.78;;;;;;;34.70;36.18;99989.50;1678496;85;21540;-79
2021/07/13 11:11:22;;;;;;;7.92;5.35;;;;;;;34.90;34.85;99991.38;1678640;85;21034;-82
2021/07/13 11:13:54;;;;;;;11.97;6.05;;;;;;;34.94;33.57;99989.05;1678394;85;21005;-77
2021/07/13 11:16:29;;;;;;;5.42;4.92;;;;;;;35.04;33.98;99991.50;1694591;84;20977;-79
2021/07/13 11:18:57;;;;;;;10.20;5.87;;;;;;;35.15;33.50;99996.13;1701382;84;21005;-80
2021/07/13 11:21:37;;;;;;;6.33;5.47;;;;;;;35.19;33.03;99986.66;1702310;84;21471;-80
2021/07/13 11:24:08;;;;;;;8.25;5.40;;;;;;;35.09;33.40;99983.67;1701496;84;21005;-80
2021/07/13 11:26:38;;;;;;;10.10;5.90;;;;;;;35.11;32.88;99980.62;1702021;84;20985;-80
2021/07/13 11:29:19;;;;;;;7.30;5.05;;;;;;;35.03;33.01;99980.24;1701632;84;21135;-80
2021/07/13 11:31:52;;;;;;;6.08;4.85;;;;;;;35.10;33.67;99984.48;1701836;84;21020;-78